createdAt,value
2023-05-09T00:00:14.852Z,1.25
2023-05-09T00:02:45.805Z,1.27
2023-05-09T00:05:15.157Z,0.40
2023-05-09T00:07:43.213Z,1.20
2023-05-09T00:10:11.149Z,0.52
2023-05-09T00:12:38.893Z,1.00
2023-05-09T00:15:08.262Z,0.73
2023-05-09T00:17:38.598Z,0.60
2023-05-09T00:20:12.042Z,0.60
2023-05-09T00:22:40.539Z,0.60
2023-05-09T00:25:08.567Z,0.63
2023-05-09T00:27:36.472Z,0.93
2023-05-09T00:30:04.544Z,0.80
2023-05-09T00:32:33.087Z,1.00
2023-05-09T00:35:02.274Z,0.77
2023-05-09T00:37:30.777Z,0.60
2023-05-09T00:39:58.461Z,0.77
2023-05-09T00:42:26.395Z,1.42
2023-05-09T00:44:54.137Z,0.93
2023-05-09T00:47:21.995Z,0.90
2023-05-09T00:49:49.718Z,0.98
2023-05-09T00:52:23.265Z,1.05
2023-05-09T00:54:51.681Z,1.35
2023-05-09T00:57:19.350Z,1.27
2023-05-09T00:59:47.137Z,0.80
2023-05-09T01:02:15.104Z,0.93
2023-05-09T01:04:43.022Z,0.80
2023-05-09T01:07:12.609Z,1.17
2023-05-09T01:09:44.841Z,0.52
2023-05-09T01:12:17.641Z,0.82
2023-05-09T01:14:55.569Z,0.63
2023-05-09T01:17:28.000Z,0.88
2023-05-09T01:20:00.643Z,0.85
2023-05-09T01:22:32.026Z,0.65
2023-05-09T01:25:14.306Z,0.80
2023-05-09T01:27:47.308Z,0.52
2023-05-09T01:30:17.177Z,1.00
2023-05-09T01:32:47.518Z,0.57
2023-05-09T01:35:15.875Z,0.60
2023-05-09T01:37:44.431Z,0.90
2023-05-09T01:40:14.260Z,0.43
2023-05-09T01:42:43.710Z,0.95
2023-05-09T01:45:12.367Z,0.47
2023-05-09T01:47:41.943Z,0.73
2023-05-09T01:50:10.952Z,0.45
2023-05-09T01:52:39.079Z,0.95
2023-05-09T01:55:07.689Z,1.15
2023-05-09T01:57:36.101Z,0.65
2023-05-09T02:00:04.087Z,1.15
2023-05-09T02:02:42.532Z,0.50
2023-05-09T02:05:12.913Z,0.63
2023-05-09T02:07:42.317Z,0.65
2023-05-09T02:10:10.751Z,0.70
2023-05-09T02:12:38.700Z,1.45
2023-05-09T02:15:06.952Z,0.77
2023-05-09T02:17:35.353Z,0.80
2023-05-09T02:20:05.570Z,0.40
2023-05-09T02:22:35.407Z,0.80
2023-05-09T02:25:04.814Z,0.52
2023-05-09T02:27:34.583Z,0.77
2023-05-09T02:30:04.210Z,0.43
2023-05-09T02:32:33.007Z,0.70
2023-05-09T02:35:02.272Z,0.95
2023-05-09T02:37:31.584Z,0.98
2023-05-09T02:39:59.506Z,0.40
2023-05-09T02:42:30.149Z,0.63
2023-05-09T02:44:57.837Z,0.73
2023-05-09T02:47:25.735Z,0.35
2023-05-09T02:49:53.490Z,0.73
2023-05-09T02:52:22.688Z,0.52
2023-05-09T02:54:51.693Z,0.52
2023-05-09T02:57:19.438Z,0.95
2023-05-09T02:59:47.110Z,0.50
2023-05-09T03:02:14.817Z,0.63
2023-05-09T03:04:42.924Z,0.50
2023-05-09T03:07:10.685Z,0.55
2023-05-09T03:09:39.812Z,0.60
2023-05-09T03:12:10.332Z,1.17
2023-05-09T03:14:38.088Z,0.68
2023-05-09T03:17:05.772Z,0.50
2023-05-09T03:19:36.172Z,1.40
2023-05-09T03:22:03.930Z,0.60
2023-05-09T03:24:35.744Z,0.75
2023-05-09T03:27:03.655Z,0.70
2023-05-09T03:29:33.452Z,0.77
2023-05-09T03:32:02.056Z,0.95
2023-05-09T03:34:29.899Z,0.68
2023-05-09T03:36:59.064Z,0.57
2023-05-09T03:39:27.047Z,1.08
2023-05-09T03:41:57.523Z,0.55
2023-05-09T03:44:25.253Z,0.70
2023-05-09T03:46:55.399Z,0.65
2023-05-09T03:49:23.251Z,1.13
2023-05-09T03:51:54.139Z,0.93
2023-05-09T03:54:22.111Z,1.25
2023-05-09T03:56:49.936Z,0.50
2023-05-09T03:59:17.649Z,0.73
2023-05-09T04:01:45.690Z,0.82
2023-05-09T04:04:15.168Z,1.35
2023-05-09T04:06:43.832Z,0.55
2023-05-09T04:09:11.916Z,0.88
2023-05-09T04:11:42.428Z,0.82
2023-05-09T04:14:12.741Z,0.82
2023-05-09T04:16:40.860Z,1.20
2023-05-09T04:19:08.662Z,0.90
2023-05-09T04:21:38.055Z,0.70
2023-05-09T04:24:07.206Z,0.63
2023-05-09T04:26:42.835Z,1.30
2023-05-09T04:29:14.148Z,0.95
2023-05-09T04:31:42.527Z,0.60
2023-05-09T04:34:13.188Z,0.50
2023-05-09T04:36:42.384Z,0.60
2023-05-09T04:39:10.679Z,0.52
2023-05-09T04:41:43.758Z,0.40
2023-05-09T04:44:11.583Z,1.08
2023-05-09T04:46:39.649Z,0.77
2023-05-09T04:49:08.048Z,0.82
2023-05-09T04:51:35.730Z,0.35
2023-05-09T04:54:04.949Z,0.47
2023-05-09T04:56:36.286Z,0.70
2023-05-09T04:59:04.244Z,0.88
2023-05-09T05:01:32.039Z,0.38
2023-05-09T05:04:00.979Z,0.70
2023-05-09T05:06:32.903Z,0.40
2023-05-09T05:09:01.352Z,0.40
2023-05-09T05:11:30.622Z,0.90
2023-05-09T05:13:58.569Z,1.27
2023-05-09T05:16:26.297Z,0.80
2023-05-09T05:18:54.276Z,0.90
2023-05-09T05:21:22.912Z,0.43
2023-05-09T05:23:50.592Z,0.98
2023-05-09T05:26:18.253Z,0.60
2023-05-09T05:28:47.655Z,2.25
2023-05-09T05:31:15.377Z,2.13
2023-05-09T05:33:43.072Z,2.20
2023-05-09T05:36:11.133Z,2.40
2023-05-09T05:38:38.887Z,2.30
2023-05-09T05:41:06.816Z,2.08
2023-05-09T05:43:34.585Z,2.60
2023-05-09T05:46:04.865Z,2.33
2023-05-09T05:48:34.398Z,2.50
2023-05-09T05:51:02.044Z,2.83
2023-05-09T05:53:32.852Z,2.85
2023-05-09T05:56:01.147Z,2.80
2023-05-09T05:58:29.917Z,2.58
2023-05-09T06:00:57.716Z,2.80
2023-05-09T06:03:26.924Z,2.78
2023-05-09T06:06:01.593Z,2.83
2023-05-09T06:08:29.401Z,2.50
2023-05-09T06:10:59.231Z,2.72
2023-05-09T06:13:26.977Z,2.60
2023-05-09T06:16:14.962Z,2.75
2023-05-09T06:18:47.470Z,2.65
2023-05-09T06:21:15.186Z,2.70
2023-05-09T06:23:57.608Z,2.97
2023-05-09T06:26:30.511Z,2.60
2023-05-09T06:28:58.174Z,2.15
2023-05-09T06:31:26.198Z,2.95
2023-05-09T06:33:55.262Z,2.72
2023-05-09T06:36:23.083Z,2.60
2023-05-09T06:38:50.806Z,2.45
2023-05-09T06:41:18.482Z,2.50
2023-05-09T06:43:46.159Z,2.53
2023-05-09T06:46:13.868Z,2.17
2023-05-09T06:48:41.613Z,2.63
2023-05-09T06:51:11.499Z,2.40
2023-05-09T06:53:39.203Z,2.28
2023-05-09T06:56:07.018Z,2.35
2023-05-09T06:58:34.783Z,2.10
2023-05-09T07:01:02.493Z,2.17
2023-05-09T07:03:30.416Z,2.28
2023-05-09T07:05:59.000Z,2.53
2023-05-09T07:08:28.151Z,2.45
2023-05-09T07:10:55.888Z,2.45
2023-05-09T07:13:23.593Z,2.10
2023-05-09T07:15:51.374Z,2.17
2023-05-09T07:18:19.072Z,2.30
2023-05-09T07:20:46.758Z,2.40
2023-05-09T07:23:14.599Z,2.05
2023-05-09T07:25:43.919Z,2.47
2023-05-09T07:28:12.404Z,1.30
2023-05-09T07:30:40.092Z,1.30
2023-05-09T07:33:08.069Z,1.52
2023-05-09T07:35:35.893Z,1.42
2023-05-09T07:38:06.313Z,1.50
2023-05-09T07:40:36.393Z,1.45
2023-05-09T07:43:05.462Z,1.10
2023-05-09T07:45:33.413Z,1.35
2023-05-09T07:48:01.341Z,1.25
2023-05-09T07:50:29.165Z,1.30
2023-05-09T07:52:56.833Z,1.33
2023-05-09T07:55:24.507Z,1.15
2023-05-09T07:57:52.214Z,1.42
2023-05-09T08:00:23.787Z,1.38
2023-05-09T08:02:51.736Z,1.30
2023-05-09T08:05:19.906Z,1.35
2023-05-09T08:07:48.889Z,1.35
2023-05-09T08:10:16.682Z,1.23
2023-05-09T08:12:44.455Z,1.05
2023-05-09T08:15:12.764Z,1.60
2023-05-09T08:17:42.080Z,1.27
2023-05-09T08:20:11.255Z,0.98
2023-05-09T08:22:40.045Z,1.20
2023-05-09T08:25:08.330Z,1.17
2023-05-09T08:27:36.058Z,1.02
2023-05-09T08:30:03.785Z,1.00
2023-05-09T08:32:31.551Z,1.05
2023-05-09T08:35:00.649Z,0.95
2023-05-09T08:37:28.951Z,0.82
2023-05-09T08:39:56.629Z,0.80
2023-05-09T08:42:26.371Z,0.40
2023-05-09T08:44:54.416Z,1.02
2023-05-09T08:47:22.471Z,0.88
2023-05-09T08:49:51.216Z,1.05
2023-05-09T08:52:20.696Z,0.90
2023-05-09T08:54:48.402Z,0.75
2023-05-09T08:57:16.338Z,0.98
2023-05-09T08:59:45.435Z,0.68
2023-05-09T09:02:14.502Z,0.80
2023-05-09T09:04:42.525Z,0.85
2023-05-09T09:07:10.871Z,0.60
2023-05-09T09:09:44.939Z,1.10
2023-05-09T09:12:13.003Z,0.40
2023-05-09T09:14:43.671Z,0.90
2023-05-09T09:17:13.187Z,0.70
2023-05-09T09:19:41.815Z,1.08
2023-05-09T09:22:11.085Z,0.60
2023-05-09T09:24:40.476Z,0.63
2023-05-09T09:27:08.366Z,0.45
2023-05-09T09:29:36.203Z,1.20
2023-05-09T09:32:04.682Z,0.40
2023-05-09T09:34:32.754Z,1.00
2023-05-09T09:37:00.455Z,0.50
2023-05-09T09:39:28.169Z,1.35
2023-05-09T09:41:57.330Z,1.30
2023-05-09T09:44:25.016Z,1.13
2023-05-09T09:46:53.477Z,1.08
2023-05-09T09:49:22.160Z,0.82
2023-05-09T09:51:53.489Z,1.23
2023-05-09T09:54:21.558Z,1.83
2023-05-09T09:56:49.878Z,1.17
2023-05-09T09:59:19.595Z,1.60
2023-05-09T10:01:57.610Z,1.40
2023-05-09T10:04:25.769Z,0.80
2023-05-09T10:06:54.204Z,0.70
2023-05-09T10:09:22.606Z,1.00
2023-05-09T10:11:51.057Z,0.90
2023-05-09T10:14:22.227Z,0.90
2023-05-09T10:16:50.433Z,0.98
2023-05-09T10:19:21.780Z,1.15
2023-05-09T10:21:52.186Z,1.40
2023-05-09T10:24:23.971Z,1.48
2023-05-09T10:26:54.161Z,1.35
2023-05-09T10:29:25.038Z,1.23
2023-05-09T10:31:55.412Z,1.48
2023-05-09T10:34:23.692Z,1.20
2023-05-09T10:36:51.443Z,1.00
2023-05-09T10:39:19.389Z,1.00
2023-05-09T10:41:49.733Z,1.08
2023-05-09T10:44:17.581Z,0.98
2023-05-09T10:46:47.140Z,0.70
2023-05-09T10:49:15.107Z,0.77
2023-05-09T10:51:43.039Z,0.82
2023-05-09T10:54:27.170Z,0.80
2023-05-09T10:56:56.889Z,1.15
2023-05-09T10:59:34.564Z,0.82
2023-05-09T11:02:04.589Z,0.90
2023-05-09T11:04:33.235Z,0.90
2023-05-09T11:07:01.399Z,1.10
2023-05-09T11:09:32.541Z,0.77
2023-05-09T11:12:01.731Z,1.02
2023-05-09T11:14:33.193Z,0.95
2023-05-09T11:17:01.951Z,1.13
2023-05-09T11:19:38.279Z,0.70
2023-05-09T11:22:12.561Z,1.08
2023-05-09T11:24:40.253Z,0.65
2023-05-09T11:27:15.382Z,1.30
2023-05-09T11:29:47.432Z,0.77
2023-05-09T11:32:16.182Z,1.02
2023-05-09T11:34:46.091Z,1.10
2023-05-09T11:37:14.337Z,0.90
2023-05-09T11:39:58.759Z,1.10
2023-05-09T11:42:26.698Z,0.60
2023-05-09T11:44:54.576Z,0.73
2023-05-09T11:47:22.633Z,0.50
2023-05-09T11:49:51.814Z,0.80
2023-05-09T11:52:19.971Z,0.50
2023-05-09T11:54:47.644Z,0.80
2023-05-09T11:57:17.508Z,0.70
2023-05-09T11:59:46.245Z,1.15
2023-05-09T12:02:14.055Z,0.80
2023-05-09T12:04:41.816Z,0.82
2023-05-09T12:07:12.463Z,0.45
2023-05-09T12:09:40.340Z,0.70
2023-05-09T12:12:12.266Z,0.82
2023-05-09T12:14:40.534Z,0.80
2023-05-09T12:17:08.479Z,1.55
2023-05-09T12:19:36.680Z,0.80
2023-05-09T12:22:06.597Z,0.70
2023-05-09T12:24:36.654Z,0.70
2023-05-09T12:27:04.861Z,1.02
2023-05-09T12:29:32.696Z,0.90
2023-05-09T12:32:01.092Z,0.50
2023-05-09T12:34:28.924Z,0.80
2023-05-09T12:36:58.470Z,0.85
2023-05-09T12:39:26.775Z,0.57
2023-05-09T12:42:01.490Z,0.98
2023-05-09T12:44:29.975Z,1.05
2023-05-09T12:46:58.417Z,0.68
2023-05-09T12:49:26.195Z,0.60
2023-05-09T12:51:54.631Z,0.73
2023-05-09T12:54:23.517Z,0.77
2023-05-09T12:56:52.600Z,0.45
2023-05-09T12:59:25.022Z,0.60
2023-05-09T13:01:53.665Z,0.47
2023-05-09T13:04:21.947Z,0.55
2023-05-09T13:06:50.853Z,0.68
2023-05-09T13:09:18.922Z,0.70
2023-05-09T13:11:47.650Z,0.40
2023-05-09T13:14:15.586Z,0.60
2023-05-09T13:16:44.914Z,0.55
2023-05-09T13:19:12.632Z,0.70
2023-05-09T13:21:40.368Z,0.88
2023-05-09T13:24:08.265Z,0.50
2023-05-09T13:26:35.971Z,0.75
2023-05-09T13:29:03.708Z,0.38
2023-05-09T13:31:31.580Z,0.40
2023-05-09T13:34:00.630Z,0.93
2023-05-09T13:36:28.596Z,1.10
2023-05-09T13:38:56.286Z,0.40
2023-05-09T13:41:24.093Z,0.73
2023-05-09T13:43:51.888Z,1.00
2023-05-09T13:46:19.607Z,0.57
2023-05-09T13:48:47.730Z,0.80
2023-05-09T13:51:16.913Z,0.40
2023-05-09T13:53:44.612Z,0.70
2023-05-09T13:56:12.321Z,0.50
2023-05-09T13:58:40.036Z,0.47
2023-05-09T14:01:07.986Z,0.60
2023-05-09T14:03:35.926Z,0.63
2023-05-09T14:06:04.283Z,0.80
2023-05-09T14:08:33.415Z,0.60
2023-05-09T14:11:01.096Z,0.55
2023-05-09T14:13:29.034Z,0.55
2023-05-09T14:15:56.815Z,0.52
2023-05-09T14:18:24.484Z,0.52
2023-05-09T14:20:52.345Z,0.65
2023-05-09T14:23:19.998Z,0.60
2023-05-09T14:25:49.089Z,0.65
2023-05-09T14:28:16.786Z,0.70
2023-05-09T14:30:44.468Z,0.55
2023-05-09T14:33:12.240Z,0.50
2023-05-09T14:35:41.440Z,0.40
2023-05-09T14:38:09.490Z,0.60
2023-05-09T14:40:37.195Z,0.57
2023-05-09T14:43:06.690Z,0.85
2023-05-09T14:45:34.375Z,0.70
2023-05-09T14:48:02.615Z,0.85
2023-05-09T14:50:30.505Z,0.55
2023-05-09T14:52:59.692Z,0.90
2023-05-09T14:55:27.931Z,0.73
2023-05-09T14:57:56.162Z,0.63
2023-05-09T15:00:26.036Z,0.50
2023-05-09T15:02:53.938Z,0.50
2023-05-09T15:05:21.741Z,0.60
2023-05-09T15:07:49.443Z,0.50
2023-05-09T15:10:17.240Z,0.50
2023-05-09T15:12:45.282Z,0.70
2023-05-09T15:15:13.588Z,0.50
2023-05-09T15:17:42.715Z,0.50
2023-05-09T15:20:10.957Z,0.55
2023-05-09T15:22:38.744Z,0.80
2023-05-09T15:25:07.034Z,0.73
2023-05-09T15:27:34.713Z,0.60
2023-05-09T15:30:02.382Z,0.50
2023-05-09T15:32:30.102Z,0.70
2023-05-09T15:34:59.167Z,0.68
2023-05-09T15:37:27.141Z,0.45
2023-05-09T15:39:54.832Z,0.70
2023-05-09T15:42:22.656Z,0.68
2023-05-09T15:44:50.322Z,0.90
2023-05-09T15:47:18.105Z,0.68
2023-05-09T15:49:45.897Z,0.80
2023-05-09T15:52:14.970Z,0.80
2023-05-09T15:54:45.161Z,0.75
2023-05-09T15:57:13.389Z,0.70
2023-05-09T15:59:41.203Z,0.73
2023-05-09T16:02:08.992Z,0.75
2023-05-09T16:04:36.784Z,0.98
2023-05-09T16:07:04.453Z,0.70
2023-05-09T16:09:34.071Z,0.70
2023-05-09T16:12:01.748Z,0.60
2023-05-09T16:14:29.499Z,0.75
2023-05-09T16:16:57.303Z,0.50
2023-05-09T16:19:24.973Z,0.63
2023-05-09T16:21:52.636Z,0.60
2023-05-09T16:24:20.300Z,0.60
2023-05-09T16:26:49.375Z,0.70
2023-05-09T16:29:17.235Z,0.60
2023-05-09T16:31:45.711Z,0.73
2023-05-09T16:34:13.415Z,0.50
2023-05-09T16:36:41.381Z,0.50
2023-05-09T16:39:09.051Z,0.75
2023-05-09T16:41:36.724Z,0.73
2023-05-09T16:44:05.764Z,0.70
2023-05-09T16:46:33.463Z,0.80
2023-05-09T16:49:01.168Z,0.90
2023-05-09T16:51:28.953Z,0.70
2023-05-09T16:53:56.622Z,0.68
2023-05-09T16:56:24.303Z,0.70
2023-05-09T16:58:52.104Z,0.52
2023-05-09T17:01:21.179Z,0.70
2023-05-09T17:03:49.349Z,0.52
2023-05-09T17:06:17.181Z,0.50
2023-05-09T17:08:44.842Z,0.60
2023-05-09T17:11:12.698Z,0.60
2023-05-09T17:13:42.571Z,0.70
2023-05-09T17:16:10.478Z,0.80
2023-05-09T17:18:39.668Z,0.73
2023-05-09T17:21:07.699Z,0.80
2023-05-09T17:23:35.363Z,0.70
2023-05-09T17:26:03.717Z,0.70
2023-05-09T17:28:31.472Z,0.80
2023-05-09T17:30:59.551Z,0.70
2023-05-09T17:33:27.423Z,0.73
2023-05-09T17:35:57.424Z,1.00
2023-05-09T17:38:25.186Z,0.70
2023-05-09T17:40:52.852Z,1.00
2023-05-09T17:43:21.670Z,0.98
2023-05-09T17:45:49.404Z,0.90
2023-05-09T17:48:17.531Z,0.90
2023-05-09T17:50:46.168Z,0.95
2023-05-09T17:53:15.301Z,1.08
2023-05-09T17:55:43.318Z,0.90
2023-05-09T17:58:11.090Z,0.82
2023-05-09T18:00:38.798Z,1.05
2023-05-09T18:03:08.568Z,1.30
2023-05-09T18:05:36.363Z,1.17
2023-05-09T18:08:04.040Z,1.23
2023-05-09T18:10:33.064Z,1.30
2023-05-09T18:13:00.798Z,1.02
2023-05-09T18:15:28.821Z,0.88
2023-05-09T18:17:57.737Z,0.80
2023-05-09T18:20:25.798Z,0.80
2023-05-09T18:22:53.805Z,0.98
2023-05-09T18:25:21.544Z,0.60
2023-05-09T18:27:50.634Z,1.10
2023-05-09T18:30:19.012Z,0.73
2023-05-09T18:32:47.213Z,1.02
2023-05-09T18:35:14.972Z,0.98
2023-05-09T18:37:42.904Z,0.80
2023-05-09T18:40:15.154Z,0.60
2023-05-09T18:42:43.510Z,0.80
2023-05-09T18:45:14.449Z,0.60
2023-05-09T18:47:42.388Z,0.85
2023-05-09T18:50:10.540Z,1.05
2023-05-09T18:52:38.461Z,1.05
2023-05-09T18:55:06.949Z,0.70
2023-05-09T18:57:34.789Z,0.85
2023-05-09T19:00:02.467Z,0.60
2023-05-09T19:02:31.730Z,1.15
2023-05-09T19:05:00.712Z,0.95
2023-05-09T19:07:29.254Z,0.57
2023-05-09T19:09:56.922Z,0.50
2023-05-09T19:12:24.598Z,0.70
2023-05-09T19:14:52.375Z,0.47
2023-05-09T19:17:20.065Z,0.55
2023-05-09T19:19:49.077Z,0.32
2023-05-09T19:22:16.780Z,0.40
2023-05-09T19:24:44.440Z,0.52
2023-05-09T19:27:12.262Z,1.08
2023-05-09T19:29:39.958Z,0.45
2023-05-09T19:32:07.665Z,0.70
2023-05-09T19:34:35.336Z,0.70
2023-05-09T19:37:04.426Z,0.30
2023-05-09T19:39:32.180Z,0.30
2023-05-09T19:42:00.686Z,0.65
2023-05-09T19:44:28.568Z,0.40
2023-05-09T19:46:58.396Z,0.55
2023-05-09T19:49:26.092Z,0.40
2023-05-09T19:51:53.828Z,0.50
2023-05-09T19:54:24.417Z,0.52
2023-05-09T19:56:52.080Z,0.47
2023-05-09T19:59:19.736Z,1.08
2023-05-09T20:01:47.414Z,0.80
2023-05-09T20:04:16.373Z,0.40
2023-05-09T20:06:45.170Z,0.68
2023-05-09T20:09:13.352Z,0.50
2023-05-09T20:11:42.373Z,1.58
2023-05-09T20:14:10.116Z,0.80
2023-05-09T20:16:37.971Z,0.88
2023-05-09T20:19:07.557Z,0.50
2023-05-09T20:21:35.256Z,0.77
2023-05-09T20:24:03.132Z,0.65
2023-05-09T20:26:30.842Z,1.10
2023-05-09T20:29:01.528Z,0.68
2023-05-09T20:31:29.461Z,1.50
2023-05-09T20:33:57.503Z,0.60
2023-05-09T20:36:25.282Z,0.80
2023-05-09T20:38:52.987Z,0.90
2023-05-09T20:41:20.645Z,0.47
2023-05-09T20:43:48.325Z,0.63
2023-05-09T20:46:17.587Z,0.35
2023-05-09T20:48:45.368Z,0.75
2023-05-09T20:51:13.105Z,0.50
2023-05-09T20:53:40.772Z,0.95
2023-05-09T20:56:08.518Z,0.90
2023-05-09T20:58:36.195Z,0.85
2023-05-09T21:01:03.924Z,0.68
2023-05-09T21:03:32.972Z,0.65
2023-05-09T21:06:00.689Z,0.77
2023-05-09T21:08:28.353Z,0.57
2023-05-09T21:10:56.029Z,0.98
2023-05-09T21:13:23.836Z,0.50
2023-05-09T21:15:51.603Z,0.40
2023-05-09T21:18:19.356Z,0.70
2023-05-09T21:20:48.388Z,1.10
2023-05-09T21:23:16.110Z,0.90
2023-05-09T21:25:44.593Z,0.63
2023-05-09T21:28:14.381Z,0.65
2023-05-09T21:30:42.096Z,0.50
2023-05-09T21:33:10.167Z,0.40
2023-05-09T21:35:37.998Z,0.25
2023-05-09T21:38:07.048Z,0.40
2023-05-09T21:40:34.727Z,1.08
2023-05-09T21:43:02.428Z,0.30
2023-05-09T21:45:30.135Z,0.77
2023-05-09T21:47:57.881Z,0.80
2023-05-09T21:50:25.663Z,0.40
2023-05-09T21:52:53.409Z,0.60
2023-05-09T21:55:22.526Z,1.48
2023-05-09T21:57:50.216Z,0.63
2023-05-09T22:00:18.419Z,0.50
2023-05-09T22:02:46.971Z,1.00
2023-05-09T22:05:14.759Z,0.93
2023-05-09T22:07:42.433Z,1.20
2023-05-09T22:10:10.727Z,0.70
2023-05-09T22:12:39.775Z,0.50
2023-05-09T22:15:08.673Z,0.65
2023-05-09T22:17:36.409Z,1.02
2023-05-09T22:20:04.466Z,0.40
2023-05-09T22:22:33.312Z,0.82
2023-05-09T22:25:00.996Z,0.68
2023-05-09T22:27:28.665Z,0.93
2023-05-09T22:29:57.749Z,0.60
2023-05-09T22:32:25.439Z,1.00
2023-05-09T22:34:54.069Z,1.00
2023-05-09T22:37:21.759Z,1.17
2023-05-09T22:39:49.433Z,0.82
2023-05-09T22:42:17.234Z,0.75
2023-05-09T22:44:45.334Z,1.05
2023-05-09T22:47:14.399Z,0.85
2023-05-09T22:49:43.100Z,0.38
2023-05-09T22:52:11.724Z,1.10
2023-05-09T22:54:40.460Z,0.80
2023-05-09T22:57:08.109Z,0.82
2023-05-09T22:59:36.979Z,0.45
2023-05-09T23:02:04.736Z,0.32
2023-05-09T23:04:33.807Z,1.00
2023-05-09T23:07:01.694Z,0.77
2023-05-09T23:09:29.432Z,0.98
2023-05-09T23:11:57.624Z,0.93
2023-05-09T23:14:25.292Z,0.60
2023-05-09T23:16:53.076Z,0.65
2023-05-09T23:19:20.778Z,1.10
2023-05-09T23:21:50.523Z,0.40
2023-05-09T23:24:18.694Z,0.60
2023-05-09T23:26:46.480Z,0.45
2023-05-09T23:29:15.002Z,0.68
2023-05-09T23:31:42.730Z,1.10
2023-05-09T23:34:10.467Z,0.90
2023-05-09T23:36:38.125Z,0.75
2023-05-09T23:39:07.152Z,0.68
2023-05-09T23:41:34.821Z,0.68
2023-05-09T23:44:03.425Z,0.82
2023-05-09T23:46:31.349Z,0.65
2023-05-09T23:48:59.034Z,0.73
2023-05-09T23:51:26.704Z,0.60
2023-05-09T23:53:54.346Z,0.82
2023-05-09T23:56:23.511Z,0.60
2023-05-09T23:58:51.169Z,0.85
